Station 44042 - Potomac, MD Image indicating link to RSS feed of recent meteorological observations for station 44042


Conditions at 44042 as of
(9:06 pm EDT on 04/20/2024)
0106 GMT on 04/21/2024:
     

Click on the graph icon in the table below to see a time series plot of the last five days of that observation.

5-day plot - Wind Direction Wind Direction (WDIR): S ( 170 deg true )
5-day plot - Wind Speed Wind Speed (WSPD): 7.8 kts
5-day plot - Wind Gust Wind Gust (GST): 9.7 kts
5-day plot - Air Temperature Air Temperature (ATMP): 57.7 °F
5-day plot - Water Temperature Water Temperature (WTMP): 59.9 °F
5-day plot - Salinity Salinity (SAL): 9.77 psu
5-day plot - Wind Speed at 10 Meters Wind Speed at 10 meters (WSPD10M): 9.7 kts
5-day plot - Wind Speed at 20 Meters Wind Speed at 20 meters (WSPD20M): 9.7 kts
5-day plot -  Wind Speed, Wind Gust and Atmospheric Pressure Combined plot of Wind Speed, Gust, and Air Pressure
Previous observations
TIME
(EDT)
5-day plot - Wind Direction
WDIR
 
5-day plot - Wind Speed
WSPD
kts
5-day plot - Wind Gust
GST
kts
5-day plot - Wave Height
WVHT
ft
5-day plot - Dominant Wave Period
DPD
sec
5-day plot - Average Wave Period
APD
sec
5-day plot - Mean Wave Direction
MWD
 
5-day plot - Atmospheric Pressure
PRES
in
5-day plot - Pressure Tendency
PTDY
in
5-day plot - Air Temperature
ATMP
°F
5-day plot - Water Temperature
WTMP
°F
5-day plot - Dew Point
DEWP
°F
5-day plot - Salinity
SAL
psu
5-day plot - Visibility
VIS
nmi
5-day plot - Tide (above MLLW)
TIDE
ft
2024-04-20 09:00 pmSSE 5.8 7.8------ 57.7 60.1- 9.78--
2024-04-20 08:48 pmSSE 5.8 7.8------ 57.9 60.6- 9.78--
2024-04-20 08:36 pmSSE 5.8 5.8------ 58.1 60.4- 9.77--
2024-04-20 08:18 pmSSE 5.8 5.8------ 58.3 60.1- 9.56--
2024-04-20 08:06 pm SE 5.8 7.8------ 58.3 60.4- 9.48--
2024-04-20 08:00 pm SE 7.8 7.8------ 58.3 60.4- 9.48--
2024-04-20 07:48 pmSSE 7.8 9.7------ 58.6 60.6- 9.41--
2024-04-20 07:36 pmSSE 7.8 9.7------ 58.5 60.8- 9.36--
2024-04-20 07:30 pmSSE 9.7 11.7------ 58.6 61.0- 9.34--
2024-04-20 07:18 pm S 9.7 11.7------ 58.8 61.0- 9.36--
2024-04-20 07:06 pm S 9.7 11.7------ 59.2 60.3- 9.37--
2024-04-20 07:00 pmSSE 7.8 9.7------ 59.4 61.0- 9.36--
2024-04-20 06:48 pmSSE 9.7 11.7------ 59.7 61.3- 9.31--
2024-04-20 06:42 pmSSE 9.7 11.7------ 59.5 61.3- 9.27--
2024-04-20 06:36 pmSSE 9.7 11.7------ 59.7 59.9- 9.29--
2024-04-20 06:30 pmSSE 9.7 11.7------ 59.9 59.5- 9.36--
2024-04-20 06:24 pmSSE 9.7 11.7------ 60.3 59.5- 9.43--
2024-04-20 06:18 pmSSE 5.8 7.8 0.3----- 61.0 59.5- 9.43--
2024-04-20 06:06 pm SE 3.9 5.8 0.3----- 61.5 59.7- 9.41--
2024-04-20 05:54 pmESE 3.9 5.8 0.0----- 61.0 60.3- 9.36--
2024-04-20 05:48 pmESE 5.8 5.8 0.0----- 61.0 60.4- 9.32--
2024-04-20 05:42 pmESE 3.9 5.8 0.0----- 61.2 61.2- 9.31--
2024-04-20 05:30 pm SE 5.8 7.8 0.3----- 61.2 62.6- 9.17--
2024-04-20 05:12 pm SE 1.9 3.9 0.3----- 62.2 61.3- 9.14--
2024-04-20 05:06 pmSSE 3.9 3.9 0.3----- 62.4 61.9- 9.10--
2024-04-20 05:00 pmSSE 3.9 3.9 0.3----- 62.8 61.7- 9.12--
2024-04-20 04:54 pmSSE 1.9 3.9------ 63.0 62.6- 9.07--
2024-04-20 04:48 pm- 0.0 1.9------ 63.7 61.5- 9.15--
2024-04-20 04:42 pm- 0.0 1.9------ 63.9 62.4- 9.12--
2024-04-20 04:30 pmSSW 3.9 3.9 0.3----- 62.6 61.7- 9.14--
2024-04-20 04:24 pm S 1.9 1.9 0.3----- 61.9 61.2- 9.19--
2024-04-20 04:12 pm E 1.9 1.9------ 60.4 61.0- 9.11--
2024-04-20 03:48 pm E 3.9 3.9------ 60.1 60.6- 9.16--
2024-04-20 03:36 pm E 3.9 5.8 0.3----- 60.1 59.2- 9.76--
2024-04-20 03:30 pm E 3.9 3.9 0.3----- 60.1 58.5- 9.87--
2024-04-20 03:18 pm E 3.9 3.9 0.0----- 59.4 58.6- 9.86--
2024-04-20 03:12 pm E 3.9 5.8 0.0----- 59.4 58.3- 9.91--
2024-04-20 03:06 pmENE 5.8 7.8 0.0----- 59.4 58.5- 9.92--
2024-04-20 03:00 pm E 5.8 5.8 0.0----- 59.4 58.8- 9.37--
2024-04-20 02:48 pm E 5.8 5.8 0.0----- 59.2 59.0- 9.26--
2024-04-20 02:36 pmENE 3.9 5.8------ 59.7 59.2- 9.24--
2024-04-20 02:30 pmENE 3.9 3.9------ 59.9 59.4- 9.13--
2024-04-20 02:24 pmENE 3.9 3.9------ 59.9 59.5- 9.12--
2024-04-20 02:06 pm SE 3.9 3.9 0.3----- 61.5 59.9- 9.03--
2024-04-20 01:54 pm S 1.9 3.9 0.3----- 63.3 59.9- 9.04--
2024-04-20 01:42 pmSSW 1.9 1.9 0.3----- 65.3 60.1- 9.04--
2024-04-20 01:24 pm SW 3.9 3.9 0.3----- 64.9 59.9- 9.03--
2024-04-20 01:18 pmWSW 1.9 1.9 0.3----- 64.9 60.1- 9.03--
2024-04-20 01:12 pm W 1.9 3.9------ 64.0 60.1- 9.04--
2024-04-20 12:48 pm W 1.9 1.9------ 62.1 59.7- 9.07--
2024-04-20 12:42 pmWNW 1.9 3.9------ 61.2 59.7- 9.07--
2024-04-20 12:36 pm W 3.9 3.9------ 60.1 59.5- 9.09--
2024-04-20 12:30 pmWNW 3.9 5.8------ 59.9 59.5- 9.11--
2024-04-20 12:24 pmWNW 3.9 5.8------ 59.9 59.5- 9.12--
2024-04-20 12:18 pm W 5.8 5.8------ 59.5 59.4- 9.14--
2024-04-20 12:12 pmWNW 5.8 5.8------ 59.5 59.4- 9.18--
2024-04-20 12:06 pmWNW 5.8 5.8------ 59.5 59.2- 9.29--
2024-04-20 12:00 pmWNW 5.8 5.8------ 58.8 59.2- 9.31--
2024-04-20 11:54 am W 5.8 7.8------ 58.6 58.8- 9.38--
2024-04-20 11:48 am W 5.8 5.8------ 58.5 58.6- 9.38--
2024-04-20 11:42 am W 5.8 5.8------ 58.3 58.6- 9.40--
2024-04-20 11:36 am W 5.8 5.8------ 59.0 58.8- 9.24--
2024-04-20 11:30 am W 5.8 5.8------ 58.8 58.6- 9.21--
2024-04-20 11:24 am W 5.8 5.8------ 58.6 58.8- 9.18--
2024-04-20 11:18 am W 3.9 5.8------ 58.8 58.8- 9.17--
2024-04-20 11:12 am W 3.9 5.8------ 58.3 58.6- 9.16--
2024-04-20 11:06 am W 3.9 5.8------ 58.1 58.6- 9.17--
2024-04-20 11:00 am W 5.8 7.8------ 57.4 58.8- 9.10--
2024-04-20 10:54 am W 5.8 7.8------ 57.0 58.6- 9.09--
2024-04-20 10:48 am W 5.8 7.8------ 57.0 58.6- 9.06--
2024-04-20 10:42 am W 7.8 7.8------ 56.8 58.6- 9.04--
2024-04-20 10:36 amWNW 7.8 9.7------ 56.3 58.6- 9.04--
2024-04-20 10:30 amWNW 7.8 7.8------ 56.1 58.6- 9.04--
2024-04-20 10:24 am W 7.8 9.7------ 56.5 58.6- 9.04--
2024-04-20 10:18 am W 5.8 7.8------ 56.1 58.6- 9.04--
2024-04-20 10:12 am W 5.8 7.8 0.3----- 55.8 58.6- 9.04--
2024-04-20 10:06 am W 7.8 9.7 0.3----- 55.6 58.5- 9.04--
2024-04-20 10:00 am W 7.8 9.7 0.3----- 55.4 58.6- 9.03--
2024-04-20 09:54 am W 7.8 9.7 0.3----- 55.4 58.5- 9.04--
2024-04-20 09:48 am W 7.8 9.7 0.3----- 55.4 58.5- 9.04--
2024-04-20 09:42 am W 7.8 9.7 0.3----- 55.8 58.5- 9.04--
2024-04-20 09:30 amWNW 7.8 7.8 0.3----- 57.2 58.5- 9.02--
2024-04-20 09:24 am W 3.9 5.8 0.3----- 56.5 58.5- 9.04--
2024-04-20 09:18 am W 1.9 1.9 0.3----- 55.0 58.5- 9.04--
2024-04-20 09:12 amWNW 3.9 3.9------ 55.0 58.5- 9.05--
2024-04-20 09:06 am W 5.8 7.8------ 54.9 58.5- 9.08--
2024-04-20 08:54 amWNW 5.8 9.7 0.0----- 54.5 58.3- 9.12--
2024-04-20 08:48 am W 5.8 7.8 0.0----- 54.3 58.3- 9.09--
2024-04-20 08:42 amWNW 5.8 9.7 0.0----- 54.3 58.3- 9.03--
2024-04-20 08:36 amWNW 3.9 5.8 0.3----- 54.3 58.3- 8.93--
2024-04-20 08:30 am W 5.8 7.8 0.3----- 54.1 58.3- 8.87--
2024-04-20 08:24 amWNW 5.8 7.8 0.3----- 53.8 58.3- 8.85--
2024-04-20 08:18 amWNW 5.8 7.8 0.3----- 53.6 58.3- 8.84--
2024-04-20 08:12 amWNW 5.8 7.8 0.0----- 53.6 58.3- 8.80--
2024-04-20 08:06 amWNW 5.8 7.8 0.0----- 53.6 58.3- 8.80--
2024-04-20 08:00 amWNW 5.8 7.8 0.0----- 53.8 58.3- 8.82--
2024-04-20 07:54 am W 3.9 5.8 0.0----- 54.1 58.3- 8.87--
2024-04-20 07:48 am W 3.9 5.8 0.0----- 54.3 58.5- 8.86--
2024-04-20 07:42 amWNW 1.9 3.9 0.0----- 53.6 58.5- 8.86--
2024-04-20 07:36 am W 3.9 5.8 0.0----- 53.4 58.5- 8.85--
2024-04-20 07:24 amWNW 3.9 5.8 0.0----- 53.2 58.5- 8.84--
2024-04-20 07:18 am W 3.9 5.8 0.0----- 53.2 58.5- 8.83--
2024-04-20 07:12 amWSW 3.9 3.9 0.3----- 53.2 58.5- 8.84--
2024-04-20 07:06 amWSW 3.9 5.8 0.3----- 53.1 58.5- 8.81--
2024-04-20 07:00 amWSW 5.8 7.8 0.3----- 53.1 58.5- 8.77--
2024-04-20 06:48 am W 7.8 9.7 0.0----- 52.9 58.5- 8.73--
2024-04-20 06:42 am W 7.8 9.7 0.0----- 52.7 58.5- 8.72--
2024-04-20 06:36 am W 5.8 7.8 0.3----- 52.9 58.5- 8.71--
2024-04-20 06:30 amWSW 1.9 3.9 0.3----- 52.9 58.5- 8.70--
2024-04-20 06:24 amSSW 1.9 3.9 0.3----- 52.7 58.5- 8.68--
2024-04-20 06:18 am SW 3.9 5.8 0.3----- 52.5 58.5- 8.68--
2024-04-20 06:12 amWSW 5.8 7.8 0.3----- 52.5 58.5- 8.67--
2024-04-20 06:06 am W 5.8 7.8 0.3----- 52.5 58.5- 8.66--
2024-04-20 06:00 amWSW 3.9 5.8 0.3----- 52.5 58.5- 8.64--
2024-04-20 05:54 amSSW 3.9 3.9 0.3----- 52.3 58.5- 8.62--
2024-04-20 05:48 amSSW 3.9 7.8 0.3----- 52.3 58.5- 8.61--
2024-04-20 05:42 am SW 5.8 7.8 0.3----- 52.3 58.5- 8.60--
2024-04-20 05:36 amWSW 5.8 7.8 0.0----- 52.2 58.5- 8.59--
2024-04-20 05:30 amWSW 5.8 7.8 0.0----- 52.3 58.5- 8.59--
2024-04-20 05:24 amSSW 3.9 5.8 0.0----- 52.2 58.5- 8.59--
2024-04-20 05:18 am SW 3.9 5.8 0.0----- 52.2 58.5- 8.59--
2024-04-20 05:12 amSSW 5.8 5.8 0.0----- 52.2 58.5- 8.59--
2024-04-20 05:06 amSSW 3.9 5.8 0.0----- 52.2 58.5- 8.60--
2024-04-20 04:54 amSSW 3.9 5.8 0.3----- 52.2 58.5- 8.64--
2024-04-20 04:48 am SW 5.8 7.8 0.3----- 52.0 58.3- 8.64--
2024-04-20 04:42 am SW 5.8 7.8 0.3----- 52.0 58.3- 8.67--
2024-04-20 04:36 am SW 5.8 7.8 0.3----- 52.0 58.3- 8.74--
2024-04-20 04:30 amSSW 3.9 5.8 0.3----- 52.0 58.3- 8.77--
2024-04-20 04:12 amSSW 3.9 5.8 0.3----- 51.8 58.3- 8.89--
2024-04-20 04:06 am SW 5.8 7.8 0.3----- 51.8 58.3- 8.92--
2024-04-20 04:00 amSSW 5.8 7.8 0.3----- 51.6 58.3- 8.95--
2024-04-20 03:48 am SW 5.8 7.8 0.3----- 51.8 58.3- 9.01--
2024-04-20 03:42 am SW 7.8 9.7 0.3----- 51.8 58.3- 9.13--
2024-04-20 03:36 am SW 3.9 5.8 0.3----- 52.0 58.3- 9.14--
2024-04-20 03:30 amWSW 5.8 7.8 0.3----- 52.0 58.3- 9.19--
2024-04-20 03:24 amWSW 3.9 5.8 0.3----- 52.2 58.3- 9.28--
2024-04-20 03:18 amWSW 3.9 3.9 0.3----- 52.2 58.3- 9.37--
2024-04-20 03:12 amSSW 1.9 3.9 0.3----- 52.2 58.3- 9.35--
2024-04-20 03:06 am S 3.9 3.9 0.3----- 52.2 58.3- 9.32--
2024-04-20 03:00 am SW 3.9 3.9 0.3----- 52.0 58.3- 9.31--
2024-04-20 02:54 am SW 3.9 5.8 0.7----- 52.0 58.3- 9.30--
2024-04-20 02:48 amWSW 3.9 5.8 0.7----- 52.0 58.3- 9.27--
2024-04-20 02:42 am SW 3.9 3.9 0.7----- 52.0 58.3- 9.26--
2024-04-20 02:36 amSSW 1.9 3.9 0.7----- 51.8 58.3- 9.24--
2024-04-20 02:30 am S 3.9 5.8 0.7----- 51.8 58.3- 9.22--
2024-04-20 02:24 amSSW 3.9 5.8 0.7----- 51.8 58.3- 9.20--
2024-04-20 02:18 am S 3.9 5.8 0.7----- 51.8 58.3- 9.19--
2024-04-20 02:12 amSSE 5.8 7.8 0.7----- 51.6 58.1- 9.17--
2024-04-20 02:06 amSSE 5.8 7.8 0.7----- 51.8 58.1- 9.16--
2024-04-20 02:00 am S 5.8 9.7 0.7----- 51.8 58.1- 9.17--
2024-04-20 01:42 am SW 5.8 7.8 0.7----- 52.0 58.1- 9.15--
2024-04-20 01:36 amSSW 5.8 7.8 0.7----- 52.0 58.1- 9.15--
2024-04-20 01:30 amSSW 3.9 5.8 0.7----- 51.8 58.1- 9.14--
2024-04-20 01:24 am S 3.9 7.8 0.7----- 51.8 58.1- 9.14--
2024-04-20 01:18 am S 5.8 7.8 0.7----- 51.8 58.1- 9.13--
2024-04-20 01:12 am S 5.8 9.7 0.7----- 51.8 58.1- 9.14--
2024-04-20 01:06 amSSW 5.8 7.8 0.7----- 52.0 58.1- 9.14--
2024-04-20 01:00 am S 1.9 5.8 0.7----- 52.2 58.1- 9.15--
2024-04-20 12:54 am S 1.9 5.8 0.7----- 52.0 58.1- 9.15--
2024-04-20 12:48 am SW 3.9 5.8 0.7----- 51.8 58.1- 9.15--
2024-04-20 12:42 amSSW 7.8 9.7 0.7----- 51.8 58.1- 9.16--
2024-04-20 12:36 amSSE 5.8 9.7 0.7----- 52.0 58.1- 9.18--
2024-04-20 12:30 amSSE 5.8 9.7 0.7----- 51.8 58.1- 9.18--
2024-04-20 12:18 amSSE 7.8 9.7 0.7----- 52.0 58.1- 9.21--
2024-04-20 12:12 am S 7.8 9.7 0.7----- 52.0 58.1- 9.23--
2024-04-20 12:06 am S 7.8 9.7 0.7----- 52.0 58.1- 9.25--
2024-04-19 11:54 pmSSE 5.8 9.7 1.0 17---- 52.2 58.3- 9.28--
2024-04-19 11:48 pm S 5.8 7.8 1.0 17---- 52.0 58.3- 9.29--
2024-04-19 11:42 pmSSE 7.8 9.7 1.0 17---- 52.0 58.3- 9.28--
2024-04-19 11:36 pmSSE 7.8 11.7 1.0 17---- 51.8 58.3- 9.28--
2024-04-19 11:30 pmSSE 11.7 15.5 0.7----- 52.2 58.3- 9.28--
2024-04-19 11:24 pmSSE 9.7 13.6 0.7----- 52.0 58.3- 9.27--
2024-04-19 11:18 pmSSE 11.7 13.6 0.7----- 52.0 58.3- 9.27--
2024-04-19 11:00 pmSSE 9.7 13.6 1.0 3---- 52.2 58.3- 9.24--
2024-04-19 10:54 pmSSE 7.8 11.7 1.0 3---- 52.2 58.3- 9.24--
2024-04-19 10:48 pmSSE 9.7 11.7 1.0 3---- 52.2 58.3- 9.24--
2024-04-19 10:42 pmSSE 9.7 13.6 1.0 3---- 52.3 58.3- 9.23--
2024-04-19 10:30 pm SE 11.7 15.5 1.0 3---- 52.3 58.3- 9.22--
2024-04-19 10:24 pm SE 11.7 13.6 1.0 3---- 52.3 58.3- 9.21--
2024-04-19 10:18 pm SE 11.7 15.5 1.0 3---- 52.5 58.3- 9.21--
2024-04-19 10:06 pm SE 11.7 15.5 1.0 3---- 52.5 58.3- 9.21--
2024-04-19 10:00 pm SE 13.6 15.5 1.0 3---- 52.7 58.3- 9.21--
2024-04-19 09:48 pm SE 11.7 13.6 1.0 3---- 52.7 58.3- 9.21--
2024-04-19 09:36 pm SE 11.7 13.6 1.0 3---- 52.9 58.3- 9.24--
2024-04-19 09:30 pm SE 11.7 13.6 1.3 3---- 53.1 58.3- 9.23--
2024-04-19 09:24 pm SE 11.7 13.6 1.3 3---- 53.1 58.3- 9.24--
2024-04-19 09:18 pmSSE 11.7 15.5 1.3 3---- 53.1 58.3- 9.21--
2024-04-19 09:06 pm SE 11.7 13.6 1.3 3---- 53.1 58.3- 9.21--
2024-04-19 08:54 pm SE 11.7 15.5 1.0 2---- 53.4 58.5- 9.18--

Disclaimer: Ocean current directions are reported to the nearest 10 degrees and speeds are measured to the nearest whole centimeter per second.

Ocean Current Data for 44042

Unit of Measure:   Time Zone:   
9:06 pm EDT 9:00 pm EDT 8:48 pm EDT 8:36 pm EDT 8:18 pm EDT 8:06 pm EDT 8:00 pm EDT 7:48 pm EDT
Depth
ft
Dir
°
Speed
kts
Dir
°
Speed
kts
Dir
°
Speed
kts
Dir
°
Speed
kts
Dir
°
Speed
kts
Dir
°
Speed
kts
Dir
°
Speed
kts
Dir
°
Speed
kts
10 310 0.47310 0.45310 0.37300 0.31310 0.21320 0.14310 0.12300 0.04

Previous (up to 48) reports of ocean current data for 44042

Ocean Current Stick Plots are available in metric units only:

All Instruments - 1-day plot - ocean current 1-day plot     3-day plot - ocean current 3-day plot     5-day plot - ocean current 5-day plot     


Ocean Conditions at 44042 as of
(9:06 pm EDT on 04/20/2024)
0106 GMT on 04/21/2024:

These oceanographic data are displayed in rounded times.

     

Click on the graph icon in the table below to see a time series plot of the last five days of that observation.

Depth (DEPTH): 3.3 ft
5-day plot - Ocean Temperature Ocean Temperature (OTMP):59.92 °F
5-day plot - Salinity Salinity (SAL): 9.77 psu
Previous observations
TIME
(EDT)
DEPTH
ft
5-day plot - Ocean Temperature
OTMP
°F
5-day plot - Conductivity
COND
mS/cm
5-day plot - Salinity
SAL
psu
5-day plot - Oxygen Concentration
O2%
%
5-day plot - Oxygen Concentration
O2PPM
ppm
5-day plot - Chlorophyll
CLCON
ug/l
5-day plot - Turbidity
TURB
FTU
5-day plot - pH
PH
 
5-day plot - Eh
EH
mv
2024-04-20 09:00 pm 3.360.12- 9.78------
2024-04-20 08:48 pm 3.360.64- 9.78------
2024-04-20 08:36 pm 3.360.39- 9.77------
2024-04-20 08:18 pm 3.360.01- 9.56------
2024-04-20 08:06 pm 3.360.48- 9.48------
2024-04-20 08:00 pm 3.360.48- 9.48------
2024-04-20 07:48 pm 3.360.66- 9.41------
2024-04-20 07:36 pm 3.360.87- 9.36------
2024-04-20 07:30 pm 3.360.96- 9.34------
2024-04-20 07:24 pm 3.361.05- 9.36------
2024-04-20 07:18 pm 3.361.02- 9.37------
2024-04-20 07:06 pm 3.360.17- 9.36------
2024-04-20 07:00 pm 3.361.05- 9.31------
2024-04-20 06:48 pm 3.361.25- 9.27------
2024-04-20 06:42 pm 3.361.27- 9.29------
2024-04-20 06:36 pm 3.359.99- 9.36------
2024-04-20 06:30 pm 3.359.50- 9.43------
2024-04-20 06:24 pm 3.359.52- 9.43------
2024-04-20 06:18 pm 3.359.59- 9.41------
2024-04-20 06:06 pm 3.359.81- 9.36------
2024-04-20 05:54 pm 3.360.30- 9.32------
2024-04-20 05:48 pm 3.360.40- 9.31------
2024-04-20 05:42 pm 3.361.23- 9.17------
2024-04-20 05:30 pm 3.362.55- 9.12------
2024-04-20 05:12 pm 3.361.41- 9.14------
2024-04-20 05:06 pm 3.361.81- 9.10------
2024-04-20 05:00 pm 3.361.74- 9.12------
2024-04-20 04:54 pm 3.362.53- 9.07------
2024-04-20 04:48 pm 3.361.50- 9.15------
2024-04-20 04:42 pm 3.362.33- 9.12------
2024-04-20 04:30 pm 3.361.74- 9.14------
2024-04-20 04:24 pm 3.361.16- 9.19------
2024-04-20 04:12 pm 3.361.00- 9.11------
2024-04-20 03:48 pm 3.360.64- 9.16------
2024-04-20 03:36 pm 3.359.25- 9.76------
2024-04-20 03:30 pm 3.358.41- 9.87------
2024-04-20 03:18 pm 3.358.69- 9.86------
2024-04-20 03:12 pm 3.358.35- 9.91------
2024-04-20 03:06 pm 3.358.39- 9.92------
2024-04-20 03:00 pm 3.358.91- 9.37------
2024-04-20 02:48 pm 3.359.02- 9.26------
2024-04-20 02:36 pm 3.359.11- 9.24------
2024-04-20 02:30 pm 3.359.40- 9.13------
2024-04-20 02:24 pm 3.359.56- 9.12------
2024-04-20 02:06 pm 3.359.86- 9.03------
2024-04-20 01:54 pm 3.359.88- 9.04------
2024-04-20 01:42 pm 3.360.13- 9.04------
2024-04-20 01:24 pm 3.359.95- 9.03------
2024-04-20 01:18 pm 3.360.03- 9.03------
2024-04-20 01:12 pm 3.360.04- 9.04------
2024-04-20 12:48 pm 3.359.74- 9.07------
2024-04-20 12:42 pm 3.359.65- 9.07------
2024-04-20 12:36 pm 3.359.56- 9.09------
2024-04-20 12:30 pm 3.359.49- 9.11------
2024-04-20 12:24 pm 3.359.50- 9.12------
2024-04-20 12:18 pm 3.359.36- 9.14------
2024-04-20 12:12 pm 3.359.29- 9.18------
2024-04-20 12:06 pm 3.359.20- 9.29------
2024-04-20 12:00 pm 3.359.09- 9.31------
2024-04-20 11:54 am 3.358.80- 9.38------
2024-04-20 11:48 am 3.358.68- 9.38------
2024-04-20 11:42 am 3.358.62- 9.40------
2024-04-20 11:36 am 3.358.75- 9.24------
2024-04-20 11:30 am 3.358.69- 9.21------
2024-04-20 11:24 am 3.358.75- 9.18------
2024-04-20 11:18 am 3.358.77- 9.17------
2024-04-20 11:12 am 3.358.71- 9.16------
2024-04-20 11:06 am 3.358.68- 9.17------
2024-04-20 11:00 am 3.358.77- 9.10------
2024-04-20 10:54 am 3.358.71- 9.09------
2024-04-20 10:48 am 3.358.68- 9.06------
2024-04-20 10:42 am 3.358.71- 9.04------
2024-04-20 10:36 am 3.358.69- 9.04------
2024-04-20 10:30 am 3.358.68- 9.04------
2024-04-20 10:24 am 3.358.64- 9.04------
2024-04-20 10:18 am 3.358.59- 9.04------
2024-04-20 10:12 am 3.358.59- 9.04------
2024-04-20 10:06 am 3.358.55- 9.04------
2024-04-20 10:00 am 3.358.57- 9.03------
2024-04-20 09:54 am 3.358.53- 9.04------
2024-04-20 09:48 am 3.358.51- 9.04------
2024-04-20 09:42 am 3.358.46- 9.04------
2024-04-20 09:30 am 3.358.42- 9.02------
2024-04-20 09:24 am 3.358.44- 9.04------
2024-04-20 09:18 am 3.358.42- 9.04------
2024-04-20 09:12 am 3.358.41- 9.05------
2024-04-20 09:06 am 3.358.37- 9.08------
2024-04-20 08:54 am 3.358.33- 9.12------
2024-04-20 08:48 am 3.358.21- 9.09------
2024-04-20 08:42 am 3.358.21- 9.03------
2024-04-20 08:36 am 3.358.21- 8.93------
2024-04-20 08:30 am 3.358.26- 8.87------
2024-04-20 08:24 am 3.358.35- 8.85------
2024-04-20 08:18 am 3.358.33- 8.84------
2024-04-20 08:12 am 3.358.33- 8.80------
2024-04-20 08:06 am 3.358.33- 8.80------
2024-04-20 08:00 am 3.358.33- 8.82------
2024-04-20 07:54 am 3.358.33- 8.87------
2024-04-20 07:48 am 3.358.42- 8.86------
2024-04-20 07:42 am 3.358.41- 8.86------
2024-04-20 07:36 am 3.358.42- 8.85------
2024-04-20 07:24 am 3.358.42- 8.84------
2024-04-20 07:18 am 3.358.46- 8.83------
2024-04-20 07:12 am 3.358.48- 8.84------
2024-04-20 07:06 am 3.358.46- 8.81------
2024-04-20 07:00 am 3.358.48- 8.77------
2024-04-20 06:48 am 3.358.48- 8.73------
2024-04-20 06:42 am 3.358.50- 8.72------
2024-04-20 06:36 am 3.358.51- 8.71------
2024-04-20 06:30 am 3.358.53- 8.70------
2024-04-20 06:24 am 3.358.53- 8.68------
2024-04-20 06:18 am 3.358.53- 8.68------
2024-04-20 06:12 am 3.358.53- 8.67------
2024-04-20 06:06 am 3.358.53- 8.66------
2024-04-20 06:00 am 3.358.55- 8.64------
2024-04-20 05:54 am 3.358.55- 8.62------
2024-04-20 05:48 am 3.358.53- 8.61------
2024-04-20 05:42 am 3.358.53- 8.60------
2024-04-20 05:36 am 3.358.51- 8.59------
2024-04-20 05:30 am 3.358.51- 8.59------
2024-04-20 05:24 am 3.358.50- 8.59------
2024-04-20 05:18 am 3.358.48- 8.59------
2024-04-20 05:12 am 3.358.46- 8.59------
2024-04-20 05:06 am 3.358.42- 8.60------
2024-04-20 04:54 am 3.358.39- 8.64------
2024-04-20 04:48 am 3.358.33- 8.64------
2024-04-20 04:42 am 3.358.32- 8.67------
2024-04-20 04:36 am 3.358.30- 8.74------
2024-04-20 04:30 am 3.358.32- 8.77------
2024-04-20 04:12 am 3.358.30- 8.89------
2024-04-20 04:06 am 3.358.30- 8.92------
2024-04-20 04:00 am 3.358.28- 8.95------
2024-04-20 03:48 am 3.358.28- 9.01------
2024-04-20 03:42 am 3.358.32- 9.13------
2024-04-20 03:36 am 3.358.26- 9.14------
2024-04-20 03:30 am 3.358.30- 9.19------
2024-04-20 03:24 am 3.358.30- 9.28------
2024-04-20 03:18 am 3.358.23- 9.37------
2024-04-20 03:12 am 3.358.21- 9.35------
2024-04-20 03:06 am 3.358.21- 9.32------
2024-04-20 03:00 am 3.358.21- 9.31------
2024-04-20 02:54 am 3.358.19- 9.30------
2024-04-20 02:48 am 3.358.21- 9.27------
2024-04-20 02:42 am 3.358.21- 9.26------
2024-04-20 02:36 am 3.358.23- 9.24------
2024-04-20 02:30 am 3.358.23- 9.22------
2024-04-20 02:24 am 3.358.23- 9.20------
2024-04-20 02:18 am 3.358.21- 9.19------
2024-04-20 02:12 am 3.358.19- 9.17------
2024-04-20 02:06 am 3.358.17- 9.16------
2024-04-20 02:00 am 3.358.15- 9.17------
2024-04-20 01:42 am 3.358.14- 9.15------
2024-04-20 01:36 am 3.358.14- 9.15------
2024-04-20 01:30 am 3.358.14- 9.14------
2024-04-20 01:24 am 3.358.14- 9.14------
2024-04-20 01:18 am 3.358.14- 9.13------
2024-04-20 01:12 am 3.358.12- 9.14------
2024-04-20 01:06 am 3.358.12- 9.14------
2024-04-20 01:00 am 3.358.12- 9.15------
2024-04-20 12:54 am 3.358.12- 9.15------
2024-04-20 12:48 am 3.358.12- 9.15------
2024-04-20 12:42 am 3.358.12- 9.16------
2024-04-20 12:36 am 3.358.12- 9.18------
2024-04-20 12:30 am 3.358.14- 9.18------
2024-04-20 12:18 am 3.358.15- 9.21------
2024-04-20 12:12 am 3.358.15- 9.23------
2024-04-20 12:06 am 3.358.17- 9.25------
2024-04-19 11:54 pm 3.358.19- 9.28------
2024-04-19 11:48 pm 3.358.19- 9.29------
2024-04-19 11:42 pm 3.358.21- 9.28------
2024-04-19 11:36 pm 3.358.21- 9.28------
2024-04-19 11:30 pm 3.358.23- 9.28------
2024-04-19 11:24 pm 3.358.23- 9.27------
2024-04-19 11:18 pm 3.358.24- 9.27------
2024-04-19 11:00 pm 3.358.28- 9.24------
2024-04-19 10:54 pm 3.358.28- 9.24------
2024-04-19 10:48 pm 3.358.30- 9.24------
2024-04-19 10:42 pm 3.358.30- 9.23------
2024-04-19 10:30 pm 3.358.32- 9.22------
2024-04-19 10:24 pm 3.358.32- 9.21------
2024-04-19 10:18 pm 3.358.32- 9.21------
2024-04-19 10:06 pm 3.358.33- 9.21------
2024-04-19 10:00 pm 3.358.33- 9.21------
2024-04-19 09:48 pm 3.358.33- 9.21------
2024-04-19 09:36 pm 3.358.32- 9.24------
2024-04-19 09:30 pm 3.358.33- 9.23------
2024-04-19 09:24 pm 3.358.33- 9.24------
2024-04-19 09:18 pm 3.358.35- 9.21------
2024-04-19 09:06 pm 3.358.37- 9.21------
2024-04-19 08:54 pm 3.358.39- 9.18------